createdAt,value
2018-05-09T00:01:08.828Z,16.28
2018-05-09T00:02:19.009Z,16.29
2018-05-09T00:03:29.160Z,16.28
2018-05-09T00:04:39.294Z,16.2
2018-05-09T00:05:49.076Z,16.21
2018-05-09T00:06:59.269Z,16.14
2018-05-09T00:08:09.397Z,16.14
2018-05-09T00:09:19.545Z,16.06
2018-05-09T00:10:29.661Z,15.99
2018-05-09T00:11:39.638Z,15.96
2018-05-09T00:12:49.784Z,15.91
2018-05-09T00:13:59.956Z,15.84
2018-05-09T00:15:09.827Z,15.82
2018-05-09T00:16:19.995Z,15.84
2018-05-09T00:17:30.148Z,15.73
2018-05-09T00:18:40.318Z,15.76
2018-05-09T00:19:50.516Z,15.64
2018-05-09T00:21:00.778Z,15.72
2018-05-09T00:22:10.915Z,15.69
2018-05-09T00:23:21.154Z,15.55
2018-05-09T00:24:31.390Z,15.55
2018-05-09T00:25:41.543Z,15.55
2018-05-09T00:26:51.666Z,15.5
2018-05-09T00:28:01.818Z,15.58
2018-05-09T00:29:11.995Z,15.45
2018-05-09T00:30:22.143Z,15.48
2018-05-09T00:31:32.306Z,15.46
2018-05-09T00:32:42.538Z,15.45
2018-05-09T00:33:52.715Z,15.43
2018-05-09T00:35:02.650Z,15.33
2018-05-09T00:36:12.834Z,15.27
2018-05-09T00:37:22.736Z,15.3
2018-05-09T00:38:32.952Z,15.25
2018-05-09T00:39:42.502Z,15.32
2018-05-09T00:40:52.461Z,15.2
2018-05-09T00:42:02.628Z,15.25
2018-05-09T00:43:12.757Z,15.11
2018-05-09T00:44:23.086Z,15.08
2018-05-09T00:45:35.663Z,15.06
2018-05-09T00:46:45.822Z,15.06
2018-05-09T00:47:56.024Z,15.03
2018-05-09T00:49:05.922Z,14.99
2018-05-09T00:50:16.424Z,15
2018-05-09T00:51:26.586Z,14.9
2018-05-09T00:52:36.510Z,14.91
2018-05-09T00:53:46.428Z,14.83
2018-05-09T00:54:56.554Z,14.85
2018-05-09T00:56:06.440Z,14.84
2018-05-09T00:57:16.648Z,14.8
2018-05-09T00:58:26.871Z,14.75
2018-05-09T00:59:37.038Z,14.81
2018-05-09T01:00:47.251Z,14.77
2018-05-09T01:01:57.441Z,14.75
2018-05-09T01:03:07.571Z,14.69
2018-05-09T01:04:17.701Z,14.7
2018-05-09T01:05:27.847Z,14.74
2018-05-09T01:06:38.003Z,14.69
2018-05-09T01:07:48.219Z,14.65
2018-05-09T01:08:58.418Z,14.66
2018-05-09T01:10:08.562Z,14.66
2018-05-09T01:11:18.844Z,14.59
2018-05-09T01:12:29.083Z,14.52
2018-05-09T01:13:40.463Z,14.54
2018-05-09T01:14:50.623Z,14.51
2018-05-09T01:16:00.751Z,14.48
2018-05-09T01:17:10.625Z,14.51
2018-05-09T01:18:20.768Z,14.48
2018-05-09T01:19:30.668Z,14.37
2018-05-09T01:20:40.800Z,14.43
2018-05-09T01:21:50.944Z,14.37
2018-05-09T01:23:01.107Z,14.43
2018-05-09T01:24:10.994Z,14.43
2018-05-09T01:25:21.136Z,14.36
2018-05-09T01:26:31.283Z,14.36
2018-05-09T01:27:41.442Z,14.28
2018-05-09T01:28:51.580Z,14.24
2018-05-09T01:30:01.725Z,14.25
2018-05-09T01:31:11.493Z,14.21
2018-05-09T01:32:21.638Z,14.14
2018-05-09T01:33:31.809Z,14.19
2018-05-09T01:34:41.932Z,14.11
2018-05-09T01:35:52.072Z,14.1
2018-05-09T01:37:02.211Z,14.16
2018-05-09T01:38:12.452Z,14.11
2018-05-09T01:39:22.094Z,14.07
2018-05-09T01:40:32.250Z,14.11
2018-05-09T01:41:42.405Z,14.11
2018-05-09T01:42:52.535Z,14.13
2018-05-09T01:44:02.721Z,14.11
2018-05-09T01:45:12.919Z,14.19
2018-05-09T01:46:22.794Z,14.09
2018-05-09T01:47:32.924Z,14.06
2018-05-09T01:48:43.051Z,14.09
2018-05-09T01:49:53.289Z,14
2018-05-09T01:51:03.526Z,14.03
2018-05-09T01:52:13.750Z,14.04
2018-05-09T01:53:24.034Z,13.94
2018-05-09T01:54:34.217Z,14
2018-05-09T01:55:44.022Z,13.89
2018-05-09T01:56:54.148Z,13.94
2018-05-09T01:58:04.289Z,13.85
2018-05-09T01:59:14.640Z,13.79
2018-05-09T02:00:25.028Z,13.82
2018-05-09T02:01:35.181Z,13.79
2018-05-09T02:02:45.327Z,13.76
2018-05-09T02:03:55.134Z,13.73
2018-05-09T02:05:05.260Z,13.71
2018-05-09T02:06:15.609Z,13.7
2018-05-09T02:07:25.748Z,13.64
2018-05-09T02:08:36.102Z,13.63
2018-05-09T02:09:46.228Z,13.66
2018-05-09T02:10:56.610Z,13.69
2018-05-09T02:12:06.979Z,13.63
2018-05-09T02:13:17.167Z,13.61
2018-05-09T02:14:27.000Z,13.59
2018-05-09T02:15:37.154Z,13.56
2018-05-09T02:16:47.461Z,13.66
2018-05-09T02:17:57.614Z,13.52
2018-05-09T02:19:07.763Z,13.59
2018-05-09T02:20:17.904Z,13.56
2018-05-09T02:21:27.679Z,13.59
2018-05-09T02:22:37.853Z,13.56
2018-05-09T02:23:48.034Z,13.56
2018-05-09T02:24:58.192Z,13.54
2018-05-09T02:26:08.084Z,13.66
2018-05-09T02:27:18.044Z,13.67
2018-05-09T02:28:28.165Z,13.52
2018-05-09T02:29:38.350Z,13.46
2018-05-09T02:30:48.563Z,13.54
2018-05-09T02:31:58.733Z,13.48
2018-05-09T02:33:08.962Z,13.45
2018-05-09T02:34:19.440Z,13.45
2018-05-09T02:35:29.415Z,13.41
2018-05-09T02:36:39.660Z,13.41
2018-05-09T02:37:49.819Z,13.41
2018-05-09T02:38:59.935Z,13.41
2018-05-09T02:40:10.069Z,13.4
2018-05-09T02:41:20.197Z,13.41
2018-05-09T02:42:29.821Z,13.46
2018-05-09T02:43:40.200Z,13.4
2018-05-09T02:44:50.150Z,13.4
2018-05-09T02:46:00.284Z,13.33
2018-05-09T02:47:10.436Z,13.26
2018-05-09T02:48:20.577Z,13.27
2018-05-09T02:49:30.722Z,13.11
2018-05-09T02:50:40.870Z,13.16
2018-05-09T02:51:51.046Z,13.12
2018-05-09T02:53:01.363Z,13.13
2018-05-09T02:54:11.758Z,13.16
2018-05-09T02:55:21.951Z,13.09
2018-05-09T02:56:32.082Z,13.09
2018-05-09T02:57:42.138Z,13.12
2018-05-09T02:58:52.261Z,13.13
2018-05-09T03:00:02.388Z,13.18
2018-05-09T03:01:12.328Z,13.04
2018-05-09T03:02:22.295Z,13.04
2018-05-09T03:03:31.917Z,13.13
2018-05-09T03:04:42.045Z,13.01
2018-05-09T03:05:52.178Z,13.01
2018-05-09T03:07:02.358Z,12.95
2018-05-09T03:08:12.505Z,13.03
2018-05-09T03:09:22.646Z,12.96
2018-05-09T03:10:32.822Z,13.04
2018-05-09T03:11:43.025Z,13.06
2018-05-09T03:12:53.157Z,13
2018-05-09T03:14:03.385Z,13
2018-05-09T03:15:13.587Z,13
2018-05-09T03:16:23.774Z,12.95
2018-05-09T03:17:34.177Z,13.03
2018-05-09T03:18:44.311Z,13.12
2018-05-09T03:19:54.478Z,13.09
2018-05-09T03:21:04.703Z,13.16
2018-05-09T03:22:14.865Z,13
2018-05-09T03:23:24.996Z,13.03
2018-05-09T03:24:35.139Z,13.09
2018-05-09T03:25:45.270Z,13.13
2018-05-09T03:26:55.470Z,13.03
2018-05-09T03:28:05.710Z,13.04
2018-05-09T03:29:15.831Z,13.09
2018-05-09T03:30:26.018Z,13.06
2018-05-09T03:31:36.134Z,13.04
2018-05-09T03:32:46.351Z,13.13
2018-05-09T03:33:56.484Z,13.04
2018-05-09T03:35:06.516Z,13.03
2018-05-09T03:36:16.687Z,13.04
2018-05-09T03:37:26.954Z,13.09
2018-05-09T03:38:37.373Z,13.06
2018-05-09T03:39:47.543Z,13.04
2018-05-09T03:40:57.718Z,12.95
2018-05-09T03:42:07.854Z,12.85
2018-05-09T03:43:17.989Z,12.93
2018-05-09T03:44:28.152Z,12.82
2018-05-09T03:45:38.431Z,12.89
2018-05-09T03:46:48.584Z,12.89
2018-05-09T03:47:58.774Z,12.89
2018-05-09T03:49:08.954Z,12.84
2018-05-09T03:50:19.337Z,12.88
2018-05-09T03:51:29.485Z,12.82
2018-05-09T03:52:39.367Z,12.84
2018-05-09T03:53:49.505Z,12.81
2018-05-09T03:54:59.394Z,12.84
2018-05-09T03:56:09.535Z,12.85
2018-05-09T03:57:19.690Z,12.88
2018-05-09T03:58:29.854Z,12.95
2018-05-09T03:59:40.079Z,12.95
2018-05-09T04:00:50.480Z,12.92
2018-05-09T04:02:00.262Z,12.92
2018-05-09T04:03:10.029Z,12.92
2018-05-09T04:04:20.149Z,12.93
2018-05-09T04:05:30.368Z,12.93
2018-05-09T04:06:40.536Z,12.93
2018-05-09T04:07:50.708Z,12.93
2018-05-09T04:09:00.888Z,12.97
2018-05-09T04:10:11.227Z,12.96
2018-05-09T04:11:21.374Z,12.85
2018-05-09T04:12:31.554Z,12.96
2018-05-09T04:13:41.160Z,12.9
2018-05-09T04:14:51.100Z,12.93
2018-05-09T04:16:01.684Z,12.92
2018-05-09T04:17:11.839Z,12.84
2018-05-09T04:18:22.212Z,12.85
2018-05-09T04:19:32.340Z,12.92
2018-05-09T04:20:42.752Z,12.84
2018-05-09T04:21:53.011Z,12.92
2018-05-09T04:23:03.165Z,12.96
2018-05-09T04:24:14.282Z,12.93
2018-05-09T04:25:24.423Z,12.96
2018-05-09T04:26:34.560Z,13.03
2018-05-09T04:27:44.698Z,12.97
2018-05-09T04:28:54.568Z,12.93
2018-05-09T04:30:04.685Z,12.97
2018-05-09T04:31:14.866Z,12.9
2018-05-09T04:32:24.993Z,12.81
2018-05-09T04:33:35.117Z,12.81
2018-05-09T04:34:45.293Z,12.82
2018-05-09T04:35:55.532Z,12.88
2018-05-09T04:37:05.750Z,12.84
2018-05-09T04:38:15.902Z,12.85
2018-05-09T04:39:26.136Z,12.82
2018-05-09T04:40:36.269Z,12.96
2018-05-09T04:41:46.409Z,12.97
2018-05-09T04:42:56.615Z,12.95
2018-05-09T04:44:06.379Z,12.92
2018-05-09T04:45:16.508Z,13.03
2018-05-09T04:46:26.649Z,12.9
2018-05-09T04:47:36.870Z,13.06
2018-05-09T04:48:47.036Z,12.97
2018-05-09T04:49:57.246Z,13.01
2018-05-09T04:52:18.903Z,13.03
2018-05-09T04:53:28.774Z,13.03
2018-05-09T04:54:38.942Z,13.08
2018-05-09T04:55:48.944Z,13.13
2018-05-09T04:56:59.091Z,13.13
2018-05-09T04:58:09.263Z,13.18
2018-05-09T04:59:19.499Z,13.21
2018-05-09T05:00:29.647Z,13.26
2018-05-09T05:01:39.873Z,13.21
2018-05-09T05:02:49.749Z,13.3
2018-05-09T05:03:59.923Z,13.27
2018-05-09T05:05:10.108Z,13.33
2018-05-09T05:06:19.911Z,13.33
2018-05-09T05:07:30.161Z,13.37
2018-05-09T05:08:40.366Z,13.33
2018-05-09T05:09:50.314Z,13.44
2018-05-09T05:11:00.138Z,13.41
2018-05-09T05:12:10.302Z,13.38
2018-05-09T05:13:20.444Z,13.46
2018-05-09T05:14:30.641Z,13.54
2018-05-09T05:15:41.059Z,13.56
2018-05-09T05:16:51.117Z,13.55
2018-05-09T05:18:00.892Z,13.49
2018-05-09T05:19:11.043Z,13.61
2018-05-09T05:20:21.189Z,13.59
2018-05-09T05:21:31.430Z,13.71
2018-05-09T05:22:41.558Z,13.63
2018-05-09T05:23:53.202Z,13.7
2018-05-09T05:25:04.764Z,13.79
2018-05-09T05:26:14.938Z,13.77
2018-05-09T05:27:25.069Z,13.85
2018-05-09T05:28:35.200Z,13.86
2018-05-09T05:29:44.812Z,13.82
2018-05-09T05:30:54.990Z,13.91
2018-05-09T05:32:05.145Z,13.88
2018-05-09T05:33:15.307Z,13.89
2018-05-09T05:34:25.746Z,14.02
2018-05-09T05:35:35.905Z,14.04
2018-05-09T05:36:46.076Z,14.11
2018-05-09T05:37:56.247Z,14.14
2018-05-09T05:39:06.143Z,14.16
2018-05-09T05:40:16.333Z,14.21
2018-05-09T05:41:26.548Z,14.22
2018-05-09T05:42:36.223Z,14.39
2018-05-09T05:43:46.402Z,14.54
2018-05-09T05:44:56.656Z,14.59
2018-05-09T05:46:08.783Z,14.66
2018-05-09T05:47:19.063Z,14.62
2018-05-09T05:48:29.215Z,14.7
2018-05-09T05:49:39.413Z,14.83
2018-05-09T05:52:03.563Z,14.85
2018-05-09T05:53:14.682Z,14.96
2018-05-09T05:54:24.596Z,15
2018-05-09T05:55:34.723Z,14.96
2018-05-09T05:56:44.876Z,15.08
2018-05-09T05:57:55.063Z,15.14
2018-05-09T05:59:05.202Z,15.06
2018-05-09T06:00:15.374Z,15.08
2018-05-09T06:01:25.657Z,15.15
2018-05-09T06:02:35.855Z,15.24
2018-05-09T06:03:46.060Z,15.21
2018-05-09T06:04:56.250Z,15.25
2018-05-09T06:06:06.451Z,15.24
2018-05-09T06:07:16.609Z,15.3
2018-05-09T06:08:26.832Z,15.25
2018-05-09T06:09:36.984Z,15.33
2018-05-09T06:10:47.134Z,15.35
2018-05-09T06:11:57.258Z,15.38
2018-05-09T06:13:07.426Z,15.42
2018-05-09T06:14:17.675Z,15.45
2018-05-09T06:15:27.830Z,15.45
2018-05-09T06:16:38.076Z,15.55
2018-05-09T06:17:48.318Z,15.53
2018-05-09T06:18:58.626Z,15.54
2018-05-09T06:20:08.509Z,15.66
2018-05-09T06:21:18.658Z,15.72
2018-05-09T06:22:28.648Z,15.82
2018-05-09T06:23:38.823Z,15.79
2018-05-09T06:24:49.013Z,15.94
2018-05-09T06:25:59.361Z,15.98
2018-05-09T06:27:09.525Z,15.98
2018-05-09T06:28:19.858Z,16.02
2018-05-09T06:29:29.755Z,16.13
2018-05-09T06:30:39.894Z,16.21
2018-05-09T06:31:50.044Z,16.2
2018-05-09T06:33:00.226Z,16.29
2018-05-09T06:34:10.386Z,16.35
2018-05-09T06:35:20.601Z,16.42
2018-05-09T06:37:45.609Z,16.38
2018-05-09T06:38:56.123Z,16.44
2018-05-09T06:40:06.016Z,16.39
2018-05-09T06:41:15.900Z,16.47
2018-05-09T06:42:26.034Z,16.62
2018-05-09T06:43:35.932Z,16.54
2018-05-09T06:44:46.348Z,16.62
2018-05-09T06:45:56.496Z,16.65
2018-05-09T06:47:06.745Z,16.68
2018-05-09T06:48:17.050Z,16.69
2018-05-09T06:49:27.210Z,16.75
2018-05-09T06:50:38.332Z,16.76
2018-05-09T06:51:48.210Z,16.79
2018-05-09T06:52:58.354Z,16.75
2018-05-09T06:54:08.530Z,16.8
2018-05-09T06:55:18.703Z,16.76
2018-05-09T06:56:28.841Z,16.79
2018-05-09T06:57:39.083Z,16.79
2018-05-09T06:58:48.674Z,16.87
2018-05-09T06:59:59.057Z,16.83
2018-05-09T07:01:09.578Z,16.86
2018-05-09T07:02:19.746Z,16.82
2018-05-09T07:03:29.906Z,16.9
2018-05-09T07:04:40.152Z,16.96
2018-05-09T07:05:50.372Z,17.02
2018-05-09T07:07:00.518Z,17.06
2018-05-09T07:08:10.756Z,17.08
2018-05-09T07:09:20.938Z,17.11
2018-05-09T07:10:31.290Z,17.11
2018-05-09T07:11:41.479Z,17.17
2018-05-09T07:12:51.720Z,17.28
2018-05-09T07:14:01.915Z,17.23
2018-05-09T07:15:12.133Z,17.4
2018-05-09T07:16:23.073Z,17.47
2018-05-09T07:17:33.238Z,17.52
2018-05-09T07:18:43.412Z,17.62
2018-05-09T07:19:53.544Z,17.57
2018-05-09T07:21:03.694Z,17.61
2018-05-09T07:22:14.151Z,17.61
2018-05-09T07:23:24.625Z,17.68
2018-05-09T07:24:34.787Z,17.77
2018-05-09T07:25:45.098Z,17.83
2018-05-09T07:26:55.317Z,17.87
2018-05-09T07:28:05.206Z,17.86
2018-05-09T07:29:15.428Z,17.97
2018-05-09T07:30:25.556Z,18
2018-05-09T07:31:35.437Z,18.02
2018-05-09T07:32:45.573Z,18.02
2018-05-09T07:33:55.736Z,18.01
2018-05-09T07:35:05.988Z,18.05
2018-05-09T07:36:16.165Z,18.01
2018-05-09T07:37:26.049Z,18.05
2018-05-09T07:38:36.206Z,18.04
2018-05-09T07:39:46.466Z,18.16
2018-05-09T07:41:09.355Z,18.15
2018-05-09T07:42:19.509Z,18.13
2018-05-09T07:43:29.656Z,18.13
2018-05-09T07:44:39.481Z,18.15
2018-05-09T07:45:49.730Z,18.22
2018-05-09T07:46:59.898Z,18.25
2018-05-09T07:48:10.118Z,18.34
2018-05-09T07:49:20.294Z,18.37
2018-05-09T07:50:30.467Z,18.34
2018-05-09T07:51:40.739Z,18.38
2018-05-09T07:52:50.898Z,18.5
2018-05-09T07:54:01.162Z,18.57
2018-05-09T07:55:11.130Z,18.63
2018-05-09T07:56:21.261Z,18.71
2018-05-09T07:57:31.420Z,18.71
2018-05-09T07:58:41.313Z,18.73
2018-05-09T07:59:51.450Z,18.8
2018-05-09T08:01:01.605Z,18.91
2018-05-09T08:02:11.860Z,18.97
2018-05-09T08:03:21.759Z,19.1
2018-05-09T08:04:32.882Z,19.12
2018-05-09T08:05:42.866Z,19.24
2018-05-09T08:06:53.044Z,19.27
2018-05-09T08:08:03.177Z,19.39
2018-05-09T08:09:13.475Z,19.53
2018-05-09T08:10:23.449Z,19.55
2018-05-09T08:11:33.605Z,19.63
2018-05-09T08:12:43.537Z,19.73
2018-05-09T08:13:53.416Z,19.73
2018-05-09T08:15:03.575Z,19.85
2018-05-09T08:16:13.482Z,19.92
2018-05-09T08:17:22.881Z,19.97
2018-05-09T08:18:32.885Z,20.17
2018-05-09T08:19:43.106Z,20.34
2018-05-09T08:20:53.009Z,20.51
2018-05-09T08:22:03.142Z,20.81
2018-05-09T08:23:13.281Z,20.96
2018-05-09T08:24:23.445Z,21.09
2018-05-09T08:25:33.379Z,21.28
2018-05-09T08:26:43.516Z,21.4
2018-05-09T08:27:53.683Z,21.68
2018-05-09T08:29:03.926Z,21.94
2018-05-09T08:30:14.195Z,22.2
2018-05-09T08:31:24.181Z,22.7
2018-05-09T08:32:34.553Z,23.35
2018-05-09T08:33:44.707Z,24.13
2018-05-09T08:34:54.904Z,24.94
2018-05-09T08:36:05.179Z,25.52
2018-05-09T08:37:15.493Z,26.14
2018-05-09T08:38:25.401Z,26.51
2018-05-09T08:39:35.594Z,26.9
2018-05-09T08:40:45.746Z,27.23
2018-05-09T08:41:55.412Z,27.53
2018-05-09T08:43:05.664Z,27.85
2018-05-09T08:44:15.882Z,28.14
2018-05-09T08:45:26.106Z,28.34
2018-05-09T08:46:36.309Z,28.69
2018-05-09T08:47:46.493Z,28.8
2018-05-09T08:48:56.676Z,29.01
2018-05-09T08:50:06.844Z,29.02
2018-05-09T08:51:17.272Z,28.98
2018-05-09T08:52:27.149Z,28.96
2018-05-09T08:53:37.328Z,29.13
2018-05-09T08:54:47.501Z,29.36
2018-05-09T08:55:57.652Z,29.55
2018-05-09T08:57:07.826Z,29.6
2018-05-09T08:58:17.969Z,29.63
2018-05-09T08:59:28.143Z,29.7
2018-05-09T09:00:38.087Z,29.75
2018-05-09T09:01:47.987Z,29.87
2018-05-09T09:02:58.096Z,29.94
2018-05-09T09:04:08.250Z,30.03
2018-05-09T09:05:17.857Z,29.81
2018-05-09T09:06:28.270Z,30.07
2018-05-09T09:07:38.844Z,29.97
2018-05-09T09:08:48.754Z,30.08
2018-05-09T09:09:58.915Z,30.07
2018-05-09T09:11:09.081Z,30.07
2018-05-09T09:12:19.245Z,30.12
2018-05-09T09:13:29.607Z,30.23
2018-05-09T09:14:39.746Z,30.37
2018-05-09T09:15:50.588Z,30.56
2018-05-09T09:17:01.231Z,30.81
2018-05-09T09:18:11.396Z,31.04
2018-05-09T09:19:21.373Z,30.96
2018-05-09T09:20:31.582Z,30.98
2018-05-09T09:21:41.775Z,31.1
2018-05-09T09:22:51.686Z,31.15
2018-05-09T09:24:01.958Z,31.16
2018-05-09T09:25:12.127Z,31.2
2018-05-09T09:26:22.311Z,31.23
2018-05-09T09:27:32.485Z,31.3
2018-05-09T09:28:42.755Z,31.47
2018-05-09T09:29:52.656Z,31.65
2018-05-09T09:31:02.834Z,31.66
2018-05-09T09:32:13.041Z,31.8
2018-05-09T09:33:23.205Z,31.77
2018-05-09T09:34:33.591Z,31.85
2018-05-09T09:35:43.824Z,31.87
2018-05-09T09:36:54.953Z,31.82
2018-05-09T09:38:04.489Z,31.47
2018-05-09T09:39:14.788Z,31.12
2018-05-09T09:40:24.996Z,30.74
2018-05-09T09:41:35.369Z,30.7
2018-05-09T09:42:45.318Z,30.82
2018-05-09T09:43:55.240Z,31.01
2018-05-09T09:45:05.512Z,31.13
2018-05-09T09:46:15.677Z,31.22
2018-05-09T09:47:26.610Z,31.27
2018-05-09T09:48:44.019Z,31.23
2018-05-09T09:49:54.191Z,31.05
2018-05-09T09:51:04.366Z,30.97
2018-05-09T09:52:14.661Z,30.82
2018-05-09T09:53:24.827Z,30.75
2018-05-09T09:54:35.066Z,30.81
2018-05-09T09:55:45.230Z,31
2018-05-09T09:56:55.465Z,31.07
2018-05-09T09:58:05.722Z,31.4
2018-05-09T09:59:15.905Z,31.66
2018-05-09T10:00:26.148Z,31.82
2018-05-09T10:01:36.587Z,31.84
2018-05-09T10:02:46.607Z,31.98
2018-05-09T10:03:56.788Z,31.92
2018-05-09T10:05:07.137Z,31.99
2018-05-09T10:06:17.319Z,31.99
2018-05-09T10:07:27.556Z,32.07
2018-05-09T10:08:38.687Z,32.07
2018-05-09T10:09:48.594Z,31.87
2018-05-09T10:10:58.771Z,31.6
2018-05-09T10:12:08.943Z,31.38
2018-05-09T10:13:19.208Z,31.35
2018-05-09T10:14:29.418Z,31.27
2018-05-09T10:15:39.395Z,31.12
2018-05-09T10:16:49.616Z,30.97
2018-05-09T10:17:59.865Z,31.05
2018-05-09T10:19:10.086Z,31.13
2018-05-09T10:20:20.336Z,31.13
2018-05-09T10:21:30.595Z,31.28
2018-05-09T10:22:40.807Z,31.57
2018-05-09T10:23:50.985Z,31.58
2018-05-09T10:25:01.232Z,31.4
2018-05-09T10:26:11.525Z,31.07
2018-05-09T10:27:21.698Z,30.69
2018-05-09T10:28:31.905Z,30.6
2018-05-09T10:29:41.842Z,30.69
2018-05-09T10:30:52.005Z,30.57
2018-05-09T10:32:02.234Z,30.16
2018-05-09T10:33:12.458Z,30.2
2018-05-09T10:34:22.621Z,30.25
2018-05-09T10:35:32.567Z,30.12
2018-05-09T10:36:42.752Z,30.12
2018-05-09T10:37:52.900Z,30.29
2018-05-09T10:39:03.077Z,30.42
2018-05-09T10:40:13.388Z,30.61
2018-05-09T10:41:23.559Z,30.66
2018-05-09T10:42:33.760Z,30.79
2018-05-09T10:43:43.938Z,30.59
2018-05-09T10:44:53.566Z,30.33
2018-05-09T10:46:03.528Z,30.17
2018-05-09T10:47:13.704Z,29.76
2018-05-09T10:48:23.856Z,29.54
2018-05-09T10:49:33.756Z,29.57
2018-05-09T10:50:44.136Z,29.63
2018-05-09T10:51:54.495Z,29.62
2018-05-09T10:53:04.685Z,29.7
2018-05-09T10:54:14.599Z,29.95
2018-05-09T10:55:24.767Z,30.11
2018-05-09T10:56:34.954Z,30.17
2018-05-09T10:57:45.104Z,30.12
2018-05-09T10:58:55.352Z,30.08
2018-05-09T11:00:05.526Z,30.08
2018-05-09T11:01:15.989Z,30.11
2018-05-09T11:02:26.144Z,29.75
2018-05-09T11:03:36.294Z,29.69
2018-05-09T11:04:46.463Z,29.6
2018-05-09T11:05:56.650Z,29.44
2018-05-09T11:07:06.841Z,29.29
2018-05-09T11:08:17.152Z,29.03
2018-05-09T11:09:27.322Z,28.64
2018-05-09T11:10:38.116Z,28.64
2018-05-09T11:11:48.322Z,28.76
2018-05-09T11:12:58.363Z,28.67
2018-05-09T11:14:08.585Z,28.53
2018-05-09T11:15:18.564Z,28.35
2018-05-09T11:16:28.706Z,27.98
2018-05-09T11:17:39.183Z,27.87
2018-05-09T11:18:49.464Z,27.92
2018-05-09T11:19:59.628Z,28
2018-05-09T11:21:09.800Z,27.95
2018-05-09T11:22:19.766Z,27.92
2018-05-09T11:23:29.987Z,28.07
2018-05-09T11:24:39.945Z,28.24
2018-05-09T11:25:50.287Z,28.26
2018-05-09T11:27:00.524Z,28.29
2018-05-09T11:28:10.684Z,28.36
2018-05-09T11:29:21.089Z,28.2
2018-05-09T11:30:31.356Z,28.08
2018-05-09T11:31:42.508Z,27.87
2018-05-09T11:32:52.415Z,27.68
2018-05-09T11:34:02.223Z,27.61
2018-05-09T11:35:12.189Z,27.42
2018-05-09T11:36:22.415Z,27.58
2018-05-09T11:37:32.445Z,27.63
2018-05-09T11:38:42.823Z,27.61
2018-05-09T11:39:52.739Z,27.43
2018-05-09T11:41:02.748Z,27.24
2018-05-09T11:42:13.005Z,27.01
2018-05-09T11:43:23.199Z,26.9
2018-05-09T11:44:33.424Z,26.89
2018-05-09T11:45:43.596Z,26.93
2018-05-09T11:46:53.761Z,26.98
2018-05-09T11:48:03.943Z,27.07
2018-05-09T11:49:13.895Z,27.1
2018-05-09T11:50:23.875Z,26.92
2018-05-09T11:51:34.017Z,26.95
2018-05-09T11:52:43.902Z,26.73
2018-05-09T11:53:54.072Z,26.61
2018-05-09T11:55:04.222Z,26.41
2018-05-09T11:56:14.377Z,26.19
2018-05-09T11:57:24.524Z,25.97
2018-05-09T11:58:34.543Z,25.76
2018-05-09T11:59:44.722Z,25.58
2018-05-09T12:00:54.968Z,25.42
2018-05-09T12:02:05.155Z,25.22
2018-05-09T12:03:15.088Z,25.19
2018-05-09T12:04:25.303Z,25.13
2018-05-09T12:05:35.233Z,25.22
2018-05-09T12:06:45.405Z,25.31
2018-05-09T12:07:55.591Z,25.52
2018-05-09T12:09:05.781Z,25.64
2018-05-09T12:10:15.740Z,25.68
2018-05-09T12:11:26.139Z,25.74
2018-05-09T12:12:36.331Z,25.73
2018-05-09T12:13:46.519Z,25.69
2018-05-09T12:14:56.748Z,25.66
2018-05-09T12:16:06.915Z,25.55
2018-05-09T12:17:17.190Z,25.65
2018-05-09T12:18:27.158Z,25.58
2018-05-09T12:19:37.307Z,25.49
2018-05-09T12:20:47.459Z,25.37
2018-05-09T12:21:57.638Z,25.32
2018-05-09T12:23:07.813Z,25.34
2018-05-09T12:24:18.059Z,25.34
2018-05-09T12:25:28.208Z,25.24
2018-05-09T12:26:38.532Z,25.25
2018-05-09T12:27:48.795Z,25.18
2018-05-09T12:28:58.951Z,25.18
2018-05-09T12:30:09.118Z,25.12
2018-05-09T12:31:19.358Z,25
2018-05-09T12:32:29.610Z,24.88
2018-05-09T12:33:39.770Z,24.82
2018-05-09T12:34:49.993Z,24.8
2018-05-09T12:36:00.136Z,24.81
2018-05-09T12:37:10.315Z,24.73
2018-05-09T12:38:20.479Z,24.69
2018-05-09T12:39:30.626Z,24.66
2018-05-09T12:40:40.788Z,24.62
2018-05-09T12:41:50.979Z,24.65
2018-05-09T12:43:01.179Z,24.73
2018-05-09T12:44:11.422Z,24.67
2018-05-09T12:45:21.590Z,24.72
2018-05-09T12:46:31.786Z,24.9
2018-05-09T12:47:42.053Z,24.84
2018-05-09T12:48:53.002Z,24.95
2018-05-09T12:50:03.625Z,25.03
2018-05-09T12:51:13.763Z,25.12
2018-05-09T12:52:23.310Z,25.03
2018-05-09T12:53:33.543Z,25.07
2018-05-09T12:54:43.373Z,24.91
2018-05-09T12:55:53.602Z,24.81
2018-05-09T12:57:03.968Z,24.72
2018-05-09T12:58:14.137Z,24.6
2018-05-09T12:59:24.284Z,24.57
2018-05-09T13:00:34.822Z,24.44
2018-05-09T13:01:45.087Z,24.44
2018-05-09T13:02:55.373Z,24.38
2018-05-09T13:04:05.615Z,24.29
2018-05-09T13:05:15.831Z,24.17
2018-05-09T13:06:25.488Z,24.06
2018-05-09T13:07:35.659Z,24.06
2018-05-09T13:08:45.862Z,24.1
2018-05-09T13:09:56.011Z,23.98
2018-05-09T13:11:05.942Z,23.92
2018-05-09T13:12:16.137Z,23.76
2018-05-09T13:13:26.287Z,23.75
2018-05-09T13:14:36.452Z,23.76
2018-05-09T13:15:46.610Z,23.73
2018-05-09T13:16:56.772Z,23.69
2018-05-09T13:18:06.752Z,23.72
2018-05-09T13:19:16.963Z,23.75
2018-05-09T13:20:26.873Z,23.68
2018-05-09T13:21:36.852Z,23.72
2018-05-09T13:22:47.218Z,23.73
2018-05-09T13:23:57.420Z,23.73
2018-05-09T13:25:07.347Z,23.73
2018-05-09T13:26:17.519Z,23.69
2018-05-09T13:27:27.680Z,23.79
2018-05-09T13:28:37.300Z,23.7
2018-05-09T13:29:47.134Z,23.7
2018-05-09T13:30:57.336Z,23.72
2018-05-09T13:32:07.213Z,23.64
2018-05-09T13:33:17.148Z,23.58
2018-05-09T13:34:27.052Z,23.55
2018-05-09T13:35:37.268Z,23.57
2018-05-09T13:36:47.168Z,23.54
2018-05-09T13:37:57.344Z,23.51
2018-05-09T13:39:07.537Z,23.58
2018-05-09T13:40:17.921Z,23.58
2018-05-09T13:41:27.837Z,23.72
2018-05-09T13:42:38.032Z,23.75
2018-05-09T13:43:48.204Z,23.7
2018-05-09T13:44:58.351Z,23.69
2018-05-09T13:46:08.764Z,23.76
2018-05-09T13:47:19.347Z,23.79
2018-05-09T13:48:29.531Z,23.92
2018-05-09T13:49:39.696Z,23.97
2018-05-09T13:50:49.843Z,23.97
2018-05-09T13:52:00.003Z,24.13
2018-05-09T13:53:09.942Z,24.13
2018-05-09T13:54:19.877Z,24.17
2018-05-09T13:55:30.172Z,24.17
2018-05-09T13:56:40.375Z,24.29
2018-05-09T13:57:50.220Z,24.34
2018-05-09T13:59:00.144Z,24.34
2018-05-09T14:00:10.080Z,24.25
2018-05-09T14:01:19.634Z,24.29
2018-05-09T14:02:29.927Z,24.2
2018-05-09T14:03:40.235Z,24.24
2018-05-09T14:04:50.484Z,24.09
2018-05-09T14:06:00.721Z,24.13
2018-05-09T14:07:10.959Z,24.12
2018-05-09T14:08:21.146Z,24.05
2018-05-09T14:09:31.288Z,23.97
2018-05-09T14:10:41.459Z,24.05
2018-05-09T14:11:51.360Z,24.09
2018-05-09T14:13:01.361Z,24.07
2018-05-09T14:14:11.604Z,23.97
2018-05-09T14:15:21.792Z,24.01
2018-05-09T14:16:32.132Z,24.06
2018-05-09T14:17:42.049Z,23.98
2018-05-09T14:18:52.218Z,24.06
2018-05-09T14:20:02.140Z,24.1
2018-05-09T14:21:12.326Z,24.17
2018-05-09T14:22:22.499Z,24.1
2018-05-09T14:23:32.629Z,24.27
2018-05-09T14:24:42.787Z,24.28
2018-05-09T14:25:52.975Z,24.27
2018-05-09T14:27:03.192Z,24.28
2018-05-09T14:28:13.396Z,24.25
2018-05-09T14:29:23.581Z,24.19
2018-05-09T14:30:33.735Z,24.24
2018-05-09T14:31:43.985Z,24.32
2018-05-09T14:32:54.248Z,24.35
2018-05-09T14:34:04.432Z,24.38
2018-05-09T14:35:14.682Z,24.39
2018-05-09T14:36:24.902Z,24.4
2018-05-09T14:37:35.087Z,24.51
2018-05-09T14:38:44.980Z,24.35
2018-05-09T14:39:55.199Z,24.35
2018-05-09T14:41:05.379Z,24.25
2018-05-09T14:42:15.528Z,24.25
2018-05-09T14:43:25.768Z,24.12
2018-05-09T14:44:35.941Z,24.07
2018-05-09T14:45:46.131Z,24.06
2018-05-09T14:46:56.302Z,23.95
2018-05-09T14:48:06.481Z,23.98
2018-05-09T14:49:16.631Z,23.85
2018-05-09T14:50:26.801Z,23.9
2018-05-09T14:51:36.946Z,23.85
2018-05-09T14:52:47.159Z,23.92
2018-05-09T14:53:57.330Z,23.87
2018-05-09T14:55:07.211Z,23.94
2018-05-09T14:56:17.399Z,23.91
2018-05-09T14:57:26.758Z,23.98
2018-05-09T14:58:36.926Z,23.92
2018-05-09T14:59:47.098Z,23.91
2018-05-09T15:00:57.307Z,23.87
2018-05-09T15:02:08.484Z,23.8
2018-05-09T15:03:18.441Z,23.73
2018-05-09T15:04:27.997Z,23.87
2018-05-09T15:05:38.179Z,23.82
2018-05-09T15:06:48.421Z,23.7
2018-05-09T15:07:58.367Z,23.68
2018-05-09T15:09:08.583Z,23.69
2018-05-09T15:10:18.535Z,23.73
2018-05-09T15:11:28.809Z,23.7